createdAt,value
2022-11-04T00:01:07.355Z,77.21
2022-11-04T00:03:36.989Z,74.29
2022-11-04T00:06:10.680Z,72.83
2022-11-04T00:08:46.977Z,71.43
2022-11-04T00:11:32.607Z,73.28
2022-11-04T00:13:59.248Z,75.42
2022-11-04T00:16:44.509Z,74.23
2022-11-04T00:19:11.373Z,73.34
2022-11-04T00:22:06.122Z,72.93
2022-11-04T00:24:54.171Z,74.84
2022-11-04T00:27:40.461Z,72.48
2022-11-04T00:30:12.450Z,73.13
2022-11-04T00:32:57.881Z,75.26
2022-11-04T00:35:24.707Z,76.05
2022-11-04T00:37:51.834Z,76.68
2022-11-04T00:40:19.280Z,77.66
2022-11-04T00:42:46.681Z,76.60
2022-11-04T00:45:13.747Z,75.49
2022-11-04T00:47:43.464Z,74.86
2022-11-04T00:50:15.857Z,75.51
2022-11-04T00:52:48.332Z,76.00
2022-11-04T00:55:15.137Z,76.08
2022-11-04T00:57:42.753Z,76.45
2022-11-04T01:00:10.104Z,76.57
2022-11-04T01:02:36.855Z,76.04
2022-11-04T01:05:07.872Z,74.21
2022-11-04T01:07:39.682Z,73.92
2022-11-04T01:10:09.958Z,73.15
2022-11-04T01:12:36.781Z,72.24
2022-11-04T01:15:05.000Z,72.65
2022-11-04T01:17:31.744Z,72.52
2022-11-04T01:19:58.943Z,72.58
2022-11-04T01:22:25.627Z,72.75
2022-11-04T01:24:55.115Z,71.10
2022-11-04T01:27:23.263Z,70.59
2022-11-04T01:29:49.865Z,69.86
2022-11-04T01:32:16.519Z,72.79
2022-11-04T01:34:45.880Z,73.52
2022-11-04T01:37:14.584Z,75.58
2022-11-04T01:39:41.326Z,76.64
2022-11-04T01:42:16.010Z,76.71
2022-11-04T01:44:45.369Z,77.60
2022-11-04T01:47:18.601Z,75.51
2022-11-04T01:49:49.166Z,75.38
2022-11-04T01:52:34.188Z,76.22
2022-11-04T01:55:07.480Z,75.67
2022-11-04T01:57:40.101Z,75.60
2022-11-04T02:00:08.869Z,74.59
2022-11-04T02:02:44.186Z,72.98
2022-11-04T02:05:11.976Z,74.39
2022-11-04T02:07:45.902Z,74.94
2022-11-04T02:10:13.185Z,74.50
2022-11-04T02:12:51.876Z,75.39
2022-11-04T02:15:39.729Z,73.68
2022-11-04T02:18:29.678Z,74.56
2022-11-04T02:21:11.571Z,73.52
2022-11-04T02:23:59.487Z,74.32
2022-11-04T02:27:02.546Z,73.52
2022-11-04T02:30:00.929Z,71.19
2022-11-04T02:33:01.053Z,71.81
2022-11-04T02:35:30.977Z,73.52
2022-11-04T02:38:27.037Z,74.70
2022-11-04T02:41:04.966Z,76.22
2022-11-04T02:43:52.704Z,75.28
2022-11-04T02:46:49.284Z,75.38
2022-11-04T02:49:34.876Z,76.50
2022-11-04T02:52:12.357Z,76.26
2022-11-04T02:55:03.889Z,77.28
2022-11-04T02:57:36.879Z,78.24
2022-11-04T03:00:07.100Z,77.56
2022-11-04T03:02:38.523Z,77.01
2022-11-04T03:05:08.487Z,76.25
2022-11-04T03:07:41.996Z,75.43
2022-11-04T03:10:17.043Z,74.62
2022-11-04T03:12:54.375Z,72.34
2022-11-04T03:15:27.001Z,72.02
2022-11-04T03:18:19.032Z,73.67
2022-11-04T03:20:48.956Z,73.54
2022-11-04T03:23:16.823Z,72.63
2022-11-04T03:25:49.887Z,74.17
2022-11-04T03:28:53.491Z,75.76
2022-11-04T03:31:57.898Z,76.30
2022-11-04T03:34:27.596Z,76.21
2022-11-04T03:36:54.305Z,76.54
2022-11-04T03:39:22.189Z,77.52
2022-11-04T03:41:53.917Z,78.68
2022-11-04T03:44:22.989Z,77.75
2022-11-04T03:46:52.801Z,78.14
2022-11-04T03:49:23.923Z,77.23
2022-11-04T03:51:54.024Z,76.38
2022-11-04T03:54:21.007Z,75.93
2022-11-04T03:57:17.039Z,75.56
2022-11-04T04:00:04.544Z,74.56
2022-11-04T04:02:53.204Z,73.86
2022-11-04T04:05:30.066Z,72.58
2022-11-04T04:08:13.210Z,71.80
2022-11-04T04:11:02.451Z,72.08
2022-11-04T04:13:48.057Z,70.93
2022-11-04T04:16:28.029Z,71.59
2022-11-04T04:19:24.540Z,70.00
2022-11-04T04:22:13.514Z,70.30
2022-11-04T04:25:05.575Z,68.92
2022-11-04T04:27:34.072Z,69.12
2022-11-04T04:30:05.764Z,69.14
2022-11-04T04:33:16.062Z,67.95
2022-11-04T04:36:01.740Z,67.84
2022-11-04T04:38:49.170Z,67.82
2022-11-04T04:41:41.211Z,67.50
2022-11-04T04:44:35.750Z,67.55
2022-11-04T04:47:05.272Z,68.26
2022-11-04T04:49:35.443Z,67.91
2022-11-04T04:52:04.587Z,67.85
2022-11-04T04:54:31.327Z,68.37
2022-11-04T04:57:00.760Z,67.04
2022-11-04T04:59:27.435Z,66.57
2022-11-04T05:01:54.209Z,67.01
2022-11-04T05:04:21.617Z,67.17
2022-11-04T05:06:48.240Z,67.51
2022-11-04T05:09:16.751Z,67.22
2022-11-04T05:11:49.620Z,66.96
2022-11-04T05:14:16.609Z,67.28
2022-11-04T05:16:44.038Z,66.88
2022-11-04T05:19:12.232Z,66.47
2022-11-04T05:21:38.883Z,65.87
2022-11-04T05:24:09.370Z,66.16
2022-11-04T05:26:44.800Z,65.61
2022-11-04T05:29:12.581Z,65.21
2022-11-04T05:31:39.770Z,65.59
2022-11-04T05:34:06.717Z,66.39
2022-11-04T05:36:33.432Z,65.81
2022-11-04T05:39:00.162Z,65.27
2022-11-04T05:41:27.762Z,66.17
2022-11-04T05:44:04.991Z,66.73
2022-11-04T05:46:32.929Z,66.27
2022-11-04T05:49:02.569Z,66.56
2022-11-04T05:51:32.370Z,67.10
2022-11-04T05:53:59.420Z,67.51
2022-11-04T05:56:26.522Z,68.51
2022-11-04T05:58:53.330Z,69.81
2022-11-04T06:01:33.293Z,70.53
2022-11-04T06:04:04.812Z,70.61
2022-11-04T06:06:36.755Z,71.66
2022-11-04T06:09:04.202Z,70.37
2022-11-04T06:11:33.093Z,68.96
2022-11-04T06:13:59.850Z,68.82
2022-11-04T06:16:27.769Z,69.21
2022-11-04T06:18:55.375Z,70.07
2022-11-04T06:21:28.931Z,70.19
2022-11-04T06:23:59.789Z,70.18
2022-11-04T06:26:28.694Z,70.97
2022-11-04T06:28:55.688Z,71.39
2022-11-04T06:31:25.405Z,72.52
2022-11-04T06:33:52.803Z,73.07
2022-11-04T06:36:21.962Z,72.46
2022-11-04T06:38:49.270Z,73.05
2022-11-04T06:41:17.267Z,73.53
2022-11-04T06:43:44.196Z,73.89
2022-11-04T06:46:38.588Z,74.03
2022-11-04T06:49:18.554Z,74.53
2022-11-04T06:51:45.213Z,74.97
2022-11-04T06:54:12.205Z,75.77
2022-11-04T06:56:41.784Z,74.46
2022-11-04T06:59:13.967Z,74.93
2022-11-04T07:01:40.716Z,74.02
2022-11-04T07:04:11.967Z,75.39
2022-11-04T07:06:43.959Z,72.41
2022-11-04T07:09:13.181Z,72.88
2022-11-04T07:11:40.612Z,70.57
2022-11-04T07:14:08.941Z,70.34
2022-11-04T07:16:35.895Z,72.25
2022-11-04T07:19:02.849Z,72.02
2022-11-04T07:21:29.500Z,71.38
2022-11-04T07:23:56.725Z,71.26
2022-11-04T07:29:07.425Z,73.74
2022-11-04T07:31:43.353Z,71.65
2022-11-04T07:34:10.100Z,73.07
2022-11-04T07:36:38.036Z,73.48
2022-11-04T07:39:08.343Z,72.06
2022-11-04T07:41:36.146Z,72.62
2022-11-04T07:44:05.462Z,70.36
2022-11-04T07:46:34.402Z,71.81
2022-11-04T07:49:01.334Z,71.63
2022-11-04T07:51:28.548Z,71.87
2022-11-04T07:53:56.015Z,72.90
2022-11-04T07:56:24.212Z,69.88
2022-11-04T07:58:55.645Z,70.00
2022-11-04T08:01:24.682Z,71.11
2022-11-04T08:03:55.048Z,70.19
2022-11-04T08:06:22.062Z,68.88
2022-11-04T08:08:49.079Z,68.13
2022-11-04T08:11:18.894Z,67.55
2022-11-04T08:13:54.340Z,69.51
2022-11-04T08:16:31.457Z,68.16
2022-11-04T08:19:03.909Z,68.29
2022-11-04T08:21:35.241Z,68.53
2022-11-04T08:24:06.257Z,69.35
2022-11-04T08:26:34.341Z,69.26
2022-11-04T08:29:02.646Z,66.09
2022-11-04T08:31:32.365Z,66.06
2022-11-04T08:34:00.189Z,66.23
2022-11-04T08:36:33.040Z,66.16
2022-11-04T08:39:04.474Z,66.02
2022-11-04T08:41:35.120Z,63.84
2022-11-04T08:44:04.441Z,63.59
2022-11-04T08:46:38.623Z,65.58
2022-11-04T08:49:09.703Z,63.14
2022-11-04T08:51:46.378Z,64.89
2022-11-04T08:54:14.848Z,60.96
2022-11-04T08:56:42.791Z,64.34
2022-11-04T08:59:13.240Z,64.19
2022-11-04T09:01:47.398Z,63.81
2022-11-04T09:04:14.668Z,63.03
2022-11-04T09:06:50.663Z,58.06
2022-11-04T09:09:19.300Z,62.90
2022-11-04T09:12:05.555Z,62.40
2022-11-04T09:14:34.737Z,62.09
2022-11-04T09:17:01.678Z,62.25
2022-11-04T09:19:30.578Z,62.69
2022-11-04T09:21:58.143Z,57.54
2022-11-04T09:24:25.173Z,60.97
2022-11-04T09:26:52.125Z,60.89
2022-11-04T09:29:18.785Z,55.85
2022-11-04T09:31:45.553Z,54.79
2022-11-04T09:34:12.348Z,58.15
2022-11-04T09:36:40.356Z,56.31
2022-11-04T09:39:10.369Z,57.48
2022-11-04T09:41:58.355Z,59.40
2022-11-04T09:44:39.813Z,55.43
2022-11-04T09:47:21.648Z,58.83
2022-11-04T09:49:52.039Z,57.92
2022-11-04T09:52:26.813Z,52.70
2022-11-04T09:54:58.357Z,56.94
2022-11-04T09:57:25.669Z,53.19
2022-11-04T09:59:53.268Z,57.51
2022-11-04T10:02:25.211Z,53.87
2022-11-04T10:05:20.827Z,54.18
2022-11-04T10:08:05.311Z,57.16
2022-11-04T10:11:18.152Z,53.43
2022-11-04T10:14:26.030Z,52.89
2022-11-04T10:17:21.006Z,56.11
2022-11-04T10:20:12.860Z,54.50
2022-11-04T10:23:21.583Z,56.51
2022-11-04T10:26:01.157Z,56.68
2022-11-04T10:29:00.922Z,55.21
2022-11-04T10:31:31.612Z,57.09
2022-11-04T10:34:09.307Z,55.46
2022-11-04T10:36:43.556Z,55.14
2022-11-04T10:39:26.299Z,56.86
2022-11-04T10:41:53.171Z,53.61
2022-11-04T10:44:27.203Z,57.33
2022-11-04T10:47:20.130Z,55.17
2022-11-04T10:50:32.672Z,55.37
2022-11-04T10:53:31.163Z,53.24
2022-11-04T10:56:04.369Z,54.18
2022-11-04T10:58:35.498Z,51.98
2022-11-04T11:01:30.582Z,55.84
2022-11-04T11:03:59.397Z,52.47
2022-11-04T11:06:36.905Z,56.57
2022-11-04T11:09:29.428Z,56.57
2022-11-04T11:12:02.392Z,55.80
2022-11-04T11:14:34.142Z,53.70
2022-11-04T11:17:42.124Z,56.77
2022-11-04T11:20:27.598Z,52.50
2022-11-04T11:23:04.472Z,54.86
2022-11-04T11:25:45.254Z,51.50
2022-11-04T11:28:23.391Z,50.44
2022-11-04T11:31:15.339Z,52.88
2022-11-04T11:33:58.114Z,55.62
2022-11-04T11:36:28.678Z,54.94
2022-11-04T11:39:12.312Z,54.18
2022-11-04T11:42:04.127Z,49.43
2022-11-04T11:44:37.631Z,54.27
2022-11-04T11:47:25.789Z,50.03
2022-11-04T11:50:24.711Z,51.85
2022-11-04T11:52:53.240Z,52.27
2022-11-04T11:55:39.235Z,49.88
2022-11-04T12:01:23.993Z,52.01
2022-11-04T12:10:49.307Z,54.57
2022-11-04T12:13:25.656Z,52.85
2022-11-04T12:16:25.778Z,52.06
2022-11-04T12:19:16.367Z,55.52
2022-11-04T12:21:51.720Z,49.69
2022-11-04T12:24:31.919Z,52.13
2022-11-04T12:27:27.606Z,50.04
2022-11-04T12:30:24.050Z,49.59
2022-11-04T12:33:05.360Z,53.10
2022-11-04T12:35:47.350Z,54.26
2022-11-04T12:38:22.164Z,49.37
2022-11-04T12:41:41.744Z,47.23
2022-11-04T12:44:26.355Z,50.06
2022-11-04T12:47:04.794Z,49.29
2022-11-04T12:49:53.299Z,46.97
2022-11-04T12:52:42.188Z,52.95
2022-11-04T12:55:31.522Z,48.18
2022-11-04T12:58:38.524Z,49.08
2022-11-04T13:01:18.079Z,53.01
2022-11-04T13:03:55.396Z,49.38
2022-11-04T13:06:26.885Z,49.88
2022-11-04T13:09:03.039Z,44.21
2022-11-04T13:11:34.700Z,46.42
2022-11-04T13:14:40.001Z,45.44
2022-11-04T13:17:14.605Z,48.99
2022-11-04T13:19:49.563Z,45.60
2022-11-04T13:22:26.746Z,48.45
2022-11-04T13:25:31.166Z,53.34
2022-11-04T13:28:01.265Z,47.77
2022-11-04T13:30:40.448Z,45.03
2022-11-04T13:33:10.508Z,43.03
2022-11-04T13:36:20.185Z,45.06
2022-11-04T13:39:12.450Z,47.12
2022-11-04T13:42:07.162Z,45.13
2022-11-04T13:44:45.143Z,51.51
2022-11-04T13:47:22.172Z,46.89
2022-11-04T13:49:55.498Z,46.54
2022-11-04T13:52:36.513Z,45.61
2022-11-04T13:55:19.753Z,51.46
2022-11-04T13:57:57.607Z,49.39
2022-11-04T14:00:35.441Z,49.79
2022-11-04T14:03:52.067Z,48.54
2022-11-04T14:06:49.439Z,51.26
2022-11-04T14:09:53.016Z,48.01
2022-11-04T14:12:36.182Z,48.15
2022-11-04T14:15:12.918Z,52.59
2022-11-04T14:17:41.946Z,50.00
2022-11-04T14:20:15.642Z,50.29
2022-11-04T14:22:51.956Z,51.09
2022-11-04T14:25:30.257Z,52.42
2022-11-04T14:28:00.199Z,52.85
2022-11-04T14:30:30.106Z,50.80
2022-11-04T14:33:06.653Z,51.76
2022-11-04T14:35:35.603Z,48.75
2022-11-04T14:38:20.287Z,50.71
2022-11-04T14:40:53.653Z,49.97
2022-11-04T14:43:33.536Z,51.78
2022-11-04T14:46:02.605Z,48.18
2022-11-04T14:48:31.594Z,48.60
2022-11-04T14:51:29.263Z,50.72
2022-11-04T14:54:22.745Z,42.59
2022-11-04T14:56:50.876Z,48.54
2022-11-04T14:59:27.499Z,46.37
2022-11-04T15:01:59.212Z,45.28
2022-11-04T15:04:38.833Z,47.62
2022-11-04T15:07:05.800Z,47.61
2022-11-04T15:09:55.880Z,52.22
2022-11-04T15:12:41.089Z,50.03
2022-11-04T15:15:31.185Z,54.21
2022-11-04T15:18:06.149Z,54.24
2022-11-04T15:20:34.759Z,48.11
2022-11-04T15:23:06.613Z,50.60
2022-11-04T15:25:33.999Z,53.32
2022-11-04T15:28:03.427Z,51.64
2022-11-04T15:30:31.563Z,53.21
2022-11-04T15:33:04.674Z,50.74
2022-11-04T15:35:33.599Z,51.62
2022-11-04T15:38:04.981Z,47.55
2022-11-04T15:40:36.192Z,52.69
2022-11-04T15:43:08.101Z,51.90
2022-11-04T15:45:59.830Z,44.84
2022-11-04T15:48:37.224Z,49.14
2022-11-04T15:51:29.861Z,44.67
2022-11-04T15:54:06.086Z,49.60
2022-11-04T15:56:43.346Z,50.83
2022-11-04T15:59:20.781Z,52.28
2022-11-04T16:01:50.460Z,51.68
2022-11-04T16:04:20.555Z,46.33
2022-11-04T16:07:13.136Z,43.82
2022-11-04T16:09:58.585Z,44.36
2022-11-04T16:12:45.230Z,42.00
2022-11-04T16:15:35.152Z,54.37
2022-11-04T16:18:03.847Z,51.98
2022-11-04T16:20:31.943Z,44.82
2022-11-04T16:23:02.125Z,44.96
2022-11-04T16:25:36.062Z,49.46
2022-11-04T16:28:05.527Z,44.78
2022-11-04T16:30:32.287Z,51.92
2022-11-04T16:33:11.184Z,47.76
2022-11-04T16:35:44.738Z,53.11
2022-11-04T16:38:11.591Z,45.19
2022-11-04T16:40:38.701Z,45.21
2022-11-04T16:43:05.664Z,45.89
2022-11-04T16:45:37.945Z,47.11
2022-11-04T16:48:04.991Z,45.35
2022-11-04T16:50:32.816Z,51.39
2022-11-04T16:52:59.628Z,52.52
2022-11-04T16:55:28.096Z,53.08
2022-11-04T16:58:00.319Z,49.66
2022-11-04T17:03:22.336Z,46.85
2022-11-04T17:05:56.652Z,48.51
2022-11-04T17:08:24.902Z,48.07
2022-11-04T17:10:54.562Z,47.88
2022-11-04T17:13:25.476Z,51.16
2022-11-04T17:15:52.360Z,52.53
2022-11-04T17:18:22.309Z,49.54
2022-11-04T17:20:53.787Z,48.79
2022-11-04T17:23:22.364Z,49.05
2022-11-04T17:25:50.299Z,48.48
2022-11-04T17:28:17.099Z,49.27
2022-11-04T17:30:44.867Z,49.85
2022-11-04T17:33:19.736Z,50.72
2022-11-04T17:35:49.457Z,51.71
2022-11-04T17:38:21.181Z,51.81
2022-11-04T17:41:09.925Z,51.82
2022-11-04T17:43:55.741Z,50.99
2022-11-04T17:46:36.304Z,50.44
2022-11-04T17:49:20.045Z,51.42
2022-11-04T17:51:49.370Z,53.30
2022-11-04T17:54:17.547Z,52.75
2022-11-04T17:56:45.259Z,53.72
2022-11-04T17:59:13.957Z,52.29
2022-11-04T18:01:42.111Z,51.70
2022-11-04T18:04:13.905Z,52.66
2022-11-04T18:06:40.896Z,52.57
2022-11-04T18:09:07.863Z,53.22
2022-11-04T18:11:53.653Z,52.87
2022-11-04T18:14:20.363Z,54.46
2022-11-04T18:16:49.135Z,54.49
2022-11-04T18:19:21.533Z,54.37
2022-11-04T18:21:49.358Z,55.05
2022-11-04T18:24:18.988Z,54.44
2022-11-04T18:26:47.507Z,54.63
2022-11-04T18:29:14.650Z,55.96
2022-11-04T18:31:46.163Z,56.34
2022-11-04T18:34:18.992Z,56.67
2022-11-04T18:36:47.306Z,55.90
2022-11-04T18:39:17.870Z,55.31
2022-11-04T18:41:46.003Z,55.31
2022-11-04T18:44:21.431Z,56.45
2022-11-04T18:46:52.167Z,57.23
2022-11-04T18:49:20.711Z,56.76
2022-11-04T18:51:52.161Z,57.08
2022-11-04T18:54:20.860Z,57.35
2022-11-04T18:56:47.871Z,58.07
2022-11-04T18:59:16.049Z,58.74
2022-11-04T19:01:52.985Z,58.86
2022-11-04T19:04:21.215Z,60.07
2022-11-04T19:06:50.667Z,60.13
2022-11-04T19:09:45.562Z,59.53
2022-11-04T19:12:27.822Z,60.20
2022-11-04T19:14:54.791Z,60.62
2022-11-04T19:17:25.063Z,60.51
2022-11-04T19:19:52.663Z,60.46
2022-11-04T19:22:21.133Z,60.12
2022-11-04T19:24:50.531Z,59.63
2022-11-04T19:27:21.654Z,59.26
2022-11-04T19:29:52.665Z,58.92
2022-11-04T19:32:19.567Z,60.37
2022-11-04T19:34:46.487Z,60.45
2022-11-04T19:37:14.193Z,60.76
2022-11-04T19:39:47.890Z,60.43
2022-11-04T19:42:38.451Z,60.88
2022-11-04T19:45:08.832Z,60.31
2022-11-04T19:47:39.498Z,60.09
2022-11-04T19:50:07.526Z,59.87
2022-11-04T19:52:39.409Z,59.37
2022-11-04T19:55:07.409Z,60.64
2022-11-04T19:57:37.670Z,61.41
2022-11-04T20:00:06.587Z,61.23
2022-11-04T20:02:41.232Z,61.75
2022-11-04T20:05:08.470Z,62.51
2022-11-04T20:07:37.597Z,63.14
2022-11-04T20:10:06.814Z,62.68
2022-11-04T20:12:55.056Z,62.12
2022-11-04T20:15:30.770Z,62.41
2022-11-04T20:17:57.503Z,62.35
2022-11-04T20:20:25.216Z,61.46
2022-11-04T20:22:51.972Z,60.83
2022-11-04T20:25:21.760Z,61.24
2022-11-04T20:27:49.261Z,61.13
2022-11-04T20:30:16.051Z,61.85
2022-11-04T20:32:43.028Z,63.39
2022-11-04T20:35:10.337Z,63.40
2022-11-04T20:37:38.183Z,62.80
2022-11-04T20:40:06.794Z,62.37
2022-11-04T20:42:35.493Z,61.76
2022-11-04T20:45:02.594Z,61.59
2022-11-04T20:47:31.654Z,61.86
2022-11-04T20:49:59.197Z,62.53
2022-11-04T20:52:27.167Z,63.57
2022-11-04T20:54:54.793Z,63.75
2022-11-04T20:57:22.700Z,61.35
2022-11-04T20:59:49.543Z,61.67
2022-11-04T21:02:19.166Z,61.94
2022-11-04T21:04:49.218Z,63.13
2022-11-04T21:07:19.403Z,62.30
2022-11-04T21:09:46.145Z,62.19
2022-11-04T21:12:13.271Z,62.32
2022-11-04T21:14:41.066Z,63.07
2022-11-04T21:17:08.180Z,62.75
2022-11-04T21:19:41.612Z,63.21
2022-11-04T21:22:08.539Z,64.00
2022-11-04T21:24:39.165Z,63.63
2022-11-04T21:27:07.856Z,64.01
2022-11-04T21:29:37.119Z,64.00
2022-11-04T21:32:04.037Z,64.24
2022-11-04T21:34:30.852Z,64.00
2022-11-04T21:37:02.699Z,63.70
2022-11-04T21:39:33.893Z,63.31
2022-11-04T21:42:01.588Z,64.63
2022-11-04T21:44:31.217Z,63.83
2022-11-04T21:46:59.485Z,63.87
2022-11-04T21:49:27.495Z,63.90
2022-11-04T21:52:01.627Z,64.64
2022-11-04T21:54:29.468Z,63.49
2022-11-04T21:56:59.906Z,62.84
2022-11-04T21:59:27.382Z,63.23
2022-11-04T22:01:55.906Z,63.23
2022-11-04T22:04:30.773Z,63.42
2022-11-04T22:06:57.811Z,61.73
2022-11-04T22:09:25.233Z,62.05
2022-11-04T22:11:52.127Z,62.13
2022-11-04T22:14:18.971Z,62.73
2022-11-04T22:16:48.700Z,61.92
2022-11-04T22:19:31.036Z,63.72
2022-11-04T22:22:02.156Z,61.97
2022-11-04T22:24:29.403Z,62.60
2022-11-04T22:26:58.147Z,62.42
2022-11-04T22:29:25.981Z,64.95
2022-11-04T22:31:52.897Z,63.37
2022-11-04T22:34:19.750Z,62.99
2022-11-04T22:36:46.668Z,62.88
2022-11-04T22:39:17.309Z,63.27
2022-11-04T22:41:44.327Z,62.02
2022-11-04T22:44:12.525Z,61.86
2022-11-04T22:46:39.664Z,62.20
2022-11-04T22:49:09.616Z,62.59
2022-11-04T22:51:36.514Z,63.01
2022-11-04T22:54:10.194Z,60.40
2022-11-04T22:56:37.578Z,60.33
2022-11-04T22:59:04.931Z,61.62
2022-11-04T23:01:33.393Z,60.61
2022-11-04T23:04:03.158Z,61.13
2022-11-04T23:06:30.810Z,60.77
2022-11-04T23:09:00.897Z,62.32
2022-11-04T23:11:48.283Z,61.56
2022-11-04T23:14:38.503Z,61.29
2022-11-04T23:17:37.812Z,59.38
2022-11-04T23:20:08.493Z,59.18
2022-11-04T23:22:54.811Z,59.27
2022-11-04T23:25:21.975Z,59.87
2022-11-04T23:28:10.893Z,59.79
2022-11-04T23:30:52.594Z,61.70
2022-11-04T23:33:40.143Z,58.89
2022-11-04T23:36:28.133Z,60.43
2022-11-04T23:38:55.071Z,59.56
2022-11-04T23:41:46.584Z,61.87
2022-11-04T23:44:33.374Z,62.02
2022-11-04T23:47:41.424Z,57.73
2022-11-04T23:50:30.222Z,58.50
2022-11-04T23:53:15.940Z,58.63
2022-11-04T23:56:01.520Z,59.78
2022-11-04T23:58:47.115Z,58.39
